Time;durP1;ratioP1;P1;durP2;ratioP2;P2;SDS_P1;SDS_P2;PMS_P1;PMS_P2;Temp;Humidity;BMP_temperature;BMP_pressure;BME280_temperature;BME280_humidity;BME280_pressure;Samples;Min_cycle;Max_cycle;Signal;HPM_P1;HPM_P2
2023/07/27 00:00:09;;;;;;;8.15;3.05;;;;;;;17.00;77.29;101046.91;6077352;19;20015;-73
2023/07/27 00:02:17;;;;;;;6.82;2.88;;;;;;;17.01;78.80;101048.63;6075198;19;20027;-72
2023/07/27 00:04:22;;;;;;;9.73;3.22;;;;;;;16.94;78.47;101041.16;6075147;19;20010;-73
2023/07/27 00:06:32;;;;;;;10.07;3.08;;;;;;;16.99;80.49;101045.22;6077629;19;20086;-73
2023/07/27 00:08:38;;;;;;;10.10;3.58;;;;;;;16.80;79.44;101045.56;6076421;19;20142;-71
2023/07/27 00:10:43;;;;;;;10.35;3.47;;;;;;;16.83;80.65;101042.69;6071730;19;20468;-72
2023/07/27 00:12:48;;;;;;;9.85;3.35;;;;;;;16.67;79.17;101034.81;6073984;19;20744;-73
2023/07/27 00:14:54;;;;;;;6.65;2.90;;;;;;;16.63;79.96;101035.09;6077109;19;20276;-74
2023/07/27 00:16:59;;;;;;;7.25;3.10;;;;;;;16.68;81.06;101044.47;6076383;19;20101;-72
2023/07/27 00:19:07;;;;;;;8.77;3.40;;;;;;;16.58;82.45;101038.03;6072362;19;20007;-74
2023/07/27 00:21:12;;;;;;;8.63;3.60;;;;;;;16.43;83.22;101041.66;6078415;19;20365;-73
2023/07/27 00:23:17;;;;;;;13.10;4.20;;;;;;;16.22;84.51;101039.38;6068117;19;20428;-73
2023/07/27 00:25:20;;;;;;;11.48;3.55;;;;;;;16.20;85.26;101038.63;6069961;19;20017;-72
2023/07/27 00:27:25;;;;;;;;;;;;;;;16.19;86.15;101036.91;6063390;19;20490;-72
2023/07/27 00:29:30;;;;;;;8.90;3.38;;;;;;;16.20;85.52;101035.13;6073439;19;19990;-73
2023/07/27 00:31:36;;;;;;;9.07;4.07;;;;;;;16.18;87.47;101037.84;6070218;19;20011;-72
2023/07/27 00:33:44;;;;;;;9.15;3.72;;;;;;;16.09;87.47;101035.75;6067261;19;20031;-74
2023/07/27 00:35:59;;;;;;;9.90;3.67;;;;;;;15.94;87.69;101031.38;6068504;19;20347;-73
2023/07/27 00:38:04;;;;;;;9.30;3.53;;;;;;;15.71;91.01;101033.59;6068634;19;20010;-74
2023/07/27 00:40:10;;;;;;;11.68;4.75;;;;;;;15.77;90.07;101027.94;6066806;19;20195;-73
2023/07/27 00:42:15;;;;;;;9.63;4.15;;;;;;;15.86;89.81;101021.25;6066908;19;20704;-73
2023/07/27 00:44:20;;;;;;;10.05;3.70;;;;;;;15.70;91.74;101018.66;6063150;19;20722;-73
2023/07/27 00:46:28;;;;;;;13.30;4.28;;;;;;;15.55;92.58;101016.88;6067992;19;20683;-73
2023/07/27 00:48:33;;;;;;;10.75;4.03;;;;;;;15.51;93.91;101010.06;6067696;19;20749;-74
2023/07/27 00:50:41;;;;;;;11.63;4.60;;;;;;;15.38;93.68;101007.25;6063884;19;20282;-73
2023/07/27 00:52:48;;;;;;;12.80;4.60;;;;;;;15.29;94.73;101005.13;6068084;19;20188;-73
2023/07/27 00:54:56;;;;;;;12.98;4.70;;;;;;;15.32;95.75;101000.53;6061854;19;20011;-73
2023/07/27 00:57:01;;;;;;;11.10;4.20;;;;;;;15.33;95.63;100996.94;6064374;19;20010;-72
2023/07/27 00:59:08;;;;;;;12.55;5.05;;;;;;;15.32;95.69;100987.28;6061822;19;20006;-72
2023/07/27 01:01:15;;;;;;;10.15;3.85;;;;;;;15.18;97.38;100987.22;6063673;19;20628;-72
2023/07/27 01:03:20;;;;;;;15.63;4.50;;;;;;;15.18;96.11;100981.06;6064740;19;20069;-72
2023/07/27 01:05:26;;;;;;;15.32;4.93;;;;;;;15.20;96.53;100984.50;6064244;19;20391;-72
2023/07/27 01:07:31;;;;;;;11.85;4.22;;;;;;;15.14;97.04;100975.13;6071315;19;20099;-72
2023/07/27 01:09:39;;;;;;;10.27;3.80;;;;;;;15.16;97.10;100973.22;6069963;19;20466;-72
2023/07/27 01:11:52;;;;;;;13.70;4.22;;;;;;;15.15;97.27;100966.22;6068905;19;20051;-73
2023/07/27 01:14:06;;;;;;;9.05;3.38;;;;;;;15.03;97.25;100956.31;6068222;19;20301;-73
2023/07/27 01:16:15;;;;;;;10.50;3.20;;;;;;;14.93;97.69;100953.38;6071236;19;20233;-72
2023/07/27 01:18:26;;;;;;;8.85;3.17;;;;;;;14.89;97.78;100955.31;6073536;19;20468;-72
2023/07/27 01:20:42;;;;;;;6.85;3.10;;;;;;;14.86;98.78;100942.28;6073501;19;20387;-70
2023/07/27 01:23:34;;;;;;;8.88;3.80;;;;;;;14.95;98.84;100932.94;6066841;19;20451;-71
2023/07/27 01:26:05;;;;;;;8.13;3.15;;;;;;;15.06;98.42;100930.56;6066604;19;20026;-72
2023/07/27 01:28:25;;;;;;;8.45;3.42;;;;;;;14.97;99.27;100932.88;6075333;19;20384;-71
2023/07/27 01:30:54;;;;;;;9.23;4.10;;;;;;;14.96;98.44;100928.53;6078444;19;20522;-73
2023/07/27 01:33:06;;;;;;;7.32;3.53;;;;;;;14.95;99.46;100916.22;6069974;19;20173;-70
2023/07/27 01:35:14;;;;;;;10.98;3.33;;;;;;;15.03;98.81;100911.34;6070940;19;20029;-71
2023/07/27 01:37:21;;;;;;;10.90;3.22;;;;;;;15.10;99.35;100915.34;6067871;19;20417;-70
2023/07/27 01:39:29;;;;;;;7.18;3.33;;;;;;;15.03;99.05;100914.81;6073406;19;20503;-70
2023/07/27 01:41:36;;;;;;;7.40;3.30;;;;;;;15.13;100.00;100909.88;6067957;19;20033;-70
2023/07/27 01:43:43;;;;;;;8.57;3.53;;;;;;;15.12;100.00;100902.88;6059256;19;20162;-71
2023/07/27 01:45:52;;;;;;;8.88;3.95;;;;;;;15.15;100.00;100903.53;6064798;19;20076;-72
2023/07/27 01:48:02;;;;;;;9.60;3.80;;;;;;;15.14;100.00;100893.91;6070062;19;20564;-72
2023/07/27 01:50:10;;;;;;;8.50;3.42;;;;;;;15.09;100.00;100884.53;6071281;19;20015;-71
2023/07/27 01:52:17;;;;;;;9.50;3.75;;;;;;;15.00;100.00;100891.19;6067582;19;20313;-71
2023/07/27 01:54:23;;;;;;;8.65;3.45;;;;;;;15.03;100.00;100874.28;6065592;19;20046;-71
2023/07/27 01:56:30;;;;;;;7.10;3.22;;;;;;;15.02;100.00;100878.72;6066387;19;20411;-71
2023/07/27 01:58:38;;;;;;;7.00;3.17;;;;;;;14.98;100.00;100865.75;6069530;19;20007;-71
2023/07/27 02:00:44;;;;;;;5.53;2.80;;;;;;;15.00;100.00;100870.03;6069811;19;20313;-72
2023/07/27 02:02:52;;;;;;;7.07;3.03;;;;;;;15.03;100.00;100866.34;6060910;19;20043;-72
2023/07/27 02:04:57;;;;;;;7.13;3.13;;;;;;;15.04;100.00;100863.63;6063932;19;20155;-71
2023/07/27 02:07:02;;;;;;;5.65;2.90;;;;;;;14.88;100.00;100863.66;6066457;19;20088;-70
2023/07/27 02:09:08;;;;;;;7.07;3.13;;;;;;;15.08;100.00;100859.00;6063595;19;20017;-70
2023/07/27 02:11:16;;;;;;;6.63;2.90;;;;;;;14.93;100.00;100851.03;6066453;19;20306;-70
2023/07/27 02:13:27;;;;;;;5.90;2.90;;;;;;;14.95;100.00;100847.44;6063819;19;20044;-71
2023/07/27 02:15:33;;;;;;;7.35;3.35;;;;;;;15.06;100.00;100839.69;6067043;19;20020;-71
2023/07/27 02:17:42;;;;;;;8.63;3.17;;;;;;;14.92;100.00;100838.72;6066690;19;20596;-72
2023/07/27 02:19:58;;;;;;;6.53;3.50;;;;;;;14.99;100.00;100820.69;6061888;19;20159;-70
2023/07/27 02:22:05;;;;;;;7.28;3.40;;;;;;;14.99;100.00;100820.69;6072275;19;20014;-70
2023/07/27 02:24:11;;;;;;;8.93;3.95;;;;;;;14.90;100.00;100811.53;6066534;19;20074;-72
2023/07/27 02:26:17;;;;;;;7.75;3.60;;;;;;;14.98;100.00;100796.97;6066269;19;20502;-70
2023/07/27 02:28:22;;;;;;;9.43;3.67;;;;;;;14.85;100.00;100805.66;6069103;19;20361;-71
2023/07/27 02:30:30;;;;;;;6.90;3.50;;;;;;;14.85;100.00;100794.19;6066644;19;20197;-72
2023/07/27 02:32:35;;;;;;;8.35;3.67;;;;;;;14.89;100.00;100780.69;6068580;19;20078;-72
2023/07/27 02:34:42;;;;;;;7.28;3.83;;;;;;;14.96;100.00;100775.91;6070896;19;20709;-71
2023/07/27 02:36:50;;;;;;;10.48;4.88;;;;;;;14.97;100.00;100772.31;6060970;19;20426;-71
2023/07/27 02:38:55;;;;;;;8.80;4.38;;;;;;;15.02;100.00;100766.75;6066957;19;20415;-71
2023/07/27 02:41:01;;;;;;;10.38;4.50;;;;;;;14.90;100.00;100758.59;6067012;19;20210;-69
2023/07/27 02:43:06;;;;;;;9.90;4.95;;;;;;;14.70;100.00;100754.47;6061176;19;20006;-69
2023/07/27 02:45:14;;;;;;;10.30;5.20;;;;;;;14.70;100.00;100751.84;6069785;19;20006;-69
2023/07/27 02:47:19;;;;;;;12.75;5.80;;;;;;;14.79;100.00;100753.06;6067177;19;20466;-68
2023/07/27 02:49:26;;;;;;;13.35;6.22;;;;;;;14.76;100.00;100747.13;6067637;19;20018;-68
2023/07/27 02:51:31;;;;;;;11.80;5.97;;;;;;;14.72;100.00;100735.91;6064775;19;20030;-69
2023/07/27 02:53:39;;;;;;;11.32;5.45;;;;;;;14.77;100.00;100739.13;6061085;19;20230;-69
2023/07/27 02:55:41;;;;;;;13.80;7.45;;;;;;;14.71;100.00;100732.38;6054872;19;20410;-68
2023/07/27 02:57:46;;;;;;;13.07;6.15;;;;;;;14.67;100.00;100735.31;6059455;19;20557;-69
2023/07/27 02:59:51;;;;;;;11.98;5.85;;;;;;;14.69;100.00;100731.63;6061040;19;20006;-69
2023/07/27 03:01:57;;;;;;;11.00;5.78;;;;;;;14.73;100.00;100720.88;6064251;19;20017;-71
2023/07/27 03:04:02;;;;;;;13.00;6.07;;;;;;;14.73;100.00;100712.94;6065867;19;20407;-70
2023/07/27 03:06:07;;;;;;;12.35;6.47;;;;;;;14.76;100.00;100705.66;6067597;19;20002;-70
2023/07/27 03:08:12;;;;;;;14.40;7.05;;;;;;;14.75;100.00;100701.31;6060330;19;20007;-70
2023/07/27 03:10:20;;;;;;;13.25;7.07;;;;;;;14.74;100.00;100702.25;6065037;19;20094;-71
2023/07/27 03:12:25;;;;;;;14.63;7.90;;;;;;;14.64;100.00;100698.44;6052306;19;20007;-70
2023/07/27 03:14:31;;;;;;;12.43;6.72;;;;;;;14.69;100.00;100699.91;6069508;19;20014;-71
2023/07/27 03:16:36;;;;;;;19.00;7.35;;;;;;;14.64;100.00;100698.44;6053054;19;20017;-70
2023/07/27 03:18:42;;;;;;;15.07;7.35;;;;;;;14.67;100.00;100685.91;6061386;19;20082;-70
2023/07/27 03:20:47;;;;;;;12.88;7.45;;;;;;;14.71;100.00;100695.34;6064680;19;20011;-70
2023/07/27 03:22:52;;;;;;;15.13;8.02;;;;;;;14.60;100.00;100681.06;6067732;19;20007;-70
2023/07/27 03:24:59;;;;;;;14.80;8.30;;;;;;;14.71;100.00;100678.63;6066179;19;20363;-71
2023/07/27 03:27:08;;;;;;;12.98;7.72;;;;;;;14.73;100.00;100684.69;6068319;19;20013;-70
2023/07/27 03:29:13;;;;;;;16.40;8.05;;;;;;;14.73;100.00;100674.09;6068788;19;20014;-70
2023/07/27 03:31:20;;;;;;;15.38;7.30;;;;;;;14.72;100.00;100669.75;6064136;19;20031;-69
2023/07/27 03:33:25;;;;;;;15.82;7.65;;;;;;;14.68;100.00;100669.06;6063366;19;20296;-70
2023/07/27 03:35:31;;;;;;;15.95;7.97;;;;;;;14.64;100.00;100667.56;6063367;19;20089;-70
2023/07/27 03:37:36;;;;;;;12.27;7.38;;;;;;;14.62;100.00;100658.03;6069435;19;20018;-70
2023/07/27 03:39:41;;;;;;;14.40;7.15;;;;;;;14.60;100.00;100647.53;6070562;19;20673;-70
2023/07/27 03:41:46;;;;;;;12.93;6.63;;;;;;;14.56;100.00;100645.16;6063832;19;20487;-69
2023/07/27 03:43:54;;;;;;;15.40;7.25;;;;;;;14.61;100.00;100648.38;6070867;19;20018;-71
2023/07/27 03:45:59;;;;;;;14.07;7.07;;;;;;;14.56;100.00;100646.03;6068825;19;21098;-70
2023/07/27 03:48:04;;;;;;;13.50;6.90;;;;;;;14.58;100.00;100649.41;6068755;19;20106;-72
2023/07/27 03:52:29;;;;;;;13.10;6.28;;;;;;;14.59;100.00;100637.91;6062168;19;20693;-70
2023/07/27 03:54:35;;;;;;;11.07;6.30;;;;;;;14.58;100.00;100632.72;6068335;19;20238;-71
2023/07/27 03:56:41;;;;;;;10.82;5.82;;;;;;;14.56;100.00;100629.28;6072517;19;20295;-72
2023/07/27 03:58:46;;;;;;;13.10;6.40;;;;;;;14.59;100.00;100627.34;6054285;19;20018;-70
2023/07/27 04:00:58;;;;;;;13.55;6.25;;;;;;;14.60;100.00;100625.53;6066018;19;20006;-72
2023/07/27 04:03:03;;;;;;;14.37;6.23;;;;;;;14.63;100.00;100614.75;6065492;19;20006;-72
2023/07/27 04:05:09;;;;;;;12.38;6.07;;;;;;;14.56;100.00;100609.00;6065135;19;20176;-72
2023/07/27 04:07:14;;;;;;;11.80;5.78;;;;;;;14.59;100.00;100611.47;6077857;19;20615;-71
2023/07/27 04:09:19;;;;;;;10.60;5.53;;;;;;;14.60;100.00;100607.88;6050380;19;20481;-72
2023/07/27 04:11:25;;;;;;;12.40;5.50;;;;;;;14.65;100.00;100608.44;6062376;19;20025;-71
2023/07/27 04:13:29;;;;;;;11.55;6.63;;;;;;;14.66;100.00;100609.28;6066782;19;20510;-70
2023/07/27 04:15:35;;;;;;;11.95;5.25;;;;;;;14.61;100.00;100606.06;6073470;19;20026;-70
2023/07/27 04:17:45;;;;;;;11.10;6.47;;;;;;;14.62;100.00;100602.50;6066311;19;20649;-71
2023/07/27 04:19:50;;;;;;;13.93;5.85;;;;;;;14.65;100.00;100591.72;6072797;19;20035;-71
2023/07/27 04:21:55;;;;;;;12.25;5.75;;;;;;;14.59;100.00;100590.31;6071241;19;20010;-71
2023/07/27 04:24:03;;;;;;;11.35;5.68;;;;;;;14.62;100.00;100595.41;6068289;19;20221;-73
2023/07/27 04:26:08;;;;;;;12.00;6.30;;;;;;;14.69;100.00;100590.56;6069173;19;20204;-73
2023/07/27 04:28:13;;;;;;;12.13;5.78;;;;;;;14.73;100.00;100586.81;6068424;19;20011;-69
2023/07/27 04:30:18;;;;;;;12.02;5.70;;;;;;;14.75;100.00;100582.28;6066517;19;20010;-72
2023/07/27 04:32:26;;;;;;;11.40;5.72;;;;;;;14.77;100.00;100588.34;6071168;19;20506;-70
2023/07/27 04:34:38;;;;;;;9.10;5.13;;;;;;;14.79;100.00;100581.13;6071322;19;20013;-70
2023/07/27 04:36:45;;;;;;;10.18;5.38;;;;;;;14.79;100.00;100578.47;6078499;19;20303;-71
2023/07/27 04:38:50;;;;;;;9.40;4.45;;;;;;;14.83;100.00;100580.00;6075741;19;20014;-71
2023/07/27 04:40:56;;;;;;;8.52;4.40;;;;;;;14.89;100.00;100570.84;6066720;19;20015;-69
2023/07/27 04:43:01;;;;;;;9.32;4.57;;;;;;;14.87;100.00;100572.72;6077906;19;20332;-71
2023/07/27 04:45:19;;;;;;;8.98;4.82;;;;;;;14.93;100.00;100561.78;6079356;19;20098;-70
2023/07/27 04:47:24;;;;;;;10.35;4.88;;;;;;;14.93;100.00;100562.63;6073612;19;20129;-71
2023/07/27 04:49:29;;;;;;;9.77;5.47;;;;;;;14.96;100.00;100561.56;6075454;19;20011;-70
2023/07/27 04:51:37;;;;;;;7.95;4.47;;;;;;;15.03;100.00;100556.72;6080225;19;20019;-71
2023/07/27 04:53:42;;;;;;;8.27;4.35;;;;;;;15.06;100.00;100559.16;6069089;19;20054;-71
2023/07/27 04:55:48;;;;;;;9.68;4.88;;;;;;;15.08;100.00;100562.56;6074900;19;20011;-71
2023/07/27 04:57:53;;;;;;;7.70;4.32;;;;;;;15.09;100.00;100549.25;6076641;19;20024;-69
2023/07/27 04:59:58;;;;;;;9.30;4.68;;;;;;;15.08;100.00;100546.69;6063951;19;20523;-70
2023/07/27 05:02:03;;;;;;;11.43;5.50;;;;;;;15.15;100.00;100537.44;6071341;19;20538;-70
2023/07/27 05:04:09;;;;;;;7.53;4.28;;;;;;;15.16;100.00;100531.16;6075575;19;20035;-69
2023/07/27 05:06:14;;;;;;;8.23;4.07;;;;;;;15.15;100.00;100525.03;6075973;19;20007;-69
2023/07/27 05:08:22;;;;;;;6.38;3.55;;;;;;;15.21;100.00;100531.72;6076145;19;19998;-70
2023/07/27 05:10:30;;;;;;;8.98;3.78;;;;;;;15.23;100.00;100535.13;6074462;19;20526;-69
2023/07/27 05:12:35;;;;;;;7.63;3.97;;;;;;;15.28;100.00;100526.91;6077555;19;20007;-71
2023/07/27 05:14:40;;;;;;;7.43;3.92;;;;;;;15.27;100.00;100525.19;6076499;19;20599;-71
2023/07/27 05:16:46;;;;;;;6.38;3.47;;;;;;;15.32;100.00;100521.31;6070905;19;20537;-71
2023/07/27 05:18:52;;;;;;;5.47;3.45;;;;;;;15.39;100.00;100526.19;6059003;19;20007;-69
2023/07/27 05:20:58;;;;;;;5.78;3.30;;;;;;;15.40;100.00;100523.41;6071523;19;20165;-71
2023/07/27 05:23:04;;;;;;;7.38;4.00;;;;;;;15.47;100.00;100529.19;6071645;19;20007;-69
2023/07/27 05:25:13;;;;;;;6.30;3.63;;;;;;;15.49;100.00;100516.69;6067410;19;20011;-70
2023/07/27 05:27:18;;;;;;;6.45;3.72;;;;;;;15.48;100.00;100522.91;6066568;19;20497;-69
2023/07/27 05:29:24;;;;;;;7.93;4.35;;;;;;;15.52;100.00;100513.84;6071649;19;20469;-71
2023/07/27 05:31:29;;;;;;;5.93;3.78;;;;;;;15.54;100.00;100512.78;6074829;19;20468;-70
2023/07/27 05:33:34;;;;;;;8.77;4.50;;;;;;;15.58;100.00;100510.78;6071455;19;20011;-70
2023/07/27 05:35:39;;;;;;;6.75;3.75;;;;;;;15.59;100.00;100508.03;6070348;19;20097;-70
2023/07/27 05:37:46;;;;;;;7.10;3.80;;;;;;;15.59;100.00;100509.84;6058590;19;20526;-69
2023/07/27 05:39:51;;;;;;;6.88;3.78;;;;;;;15.60;100.00;100506.22;6067168;19;20015;-70
2023/07/27 05:41:59;;;;;;;6.93;3.88;;;;;;;15.65;100.00;100500.63;6069136;19;20270;-72
2023/07/27 05:44:04;;;;;;;7.07;3.85;;;;;;;15.69;100.00;100505.66;6068898;19;20430;-71
2023/07/27 05:46:09;;;;;;;8.30;3.70;;;;;;;15.72;100.00;100505.44;6049057;19;20477;-72
2023/07/27 05:48:15;;;;;;;6.13;3.80;;;;;;;15.76;100.00;100501.63;6066348;19;20010;-71
2023/07/27 05:50:20;;;;;;;7.13;3.90;;;;;;;15.78;100.00;100501.53;6067952;19;20291;-70
2023/07/27 05:52:26;;;;;;;5.80;3.55;;;;;;;15.75;100.00;100497.28;6059499;19;20532;-72
2023/07/27 05:54:31;;;;;;;6.47;3.88;;;;;;;15.77;100.00;100499.81;6061522;19;20452;-71
2023/07/27 05:56:40;;;;;;;4.78;3.20;;;;;;;15.81;100.00;100498.66;6070942;19;20158;-71
2023/07/27 05:58:48;;;;;;;6.22;4.10;;;;;;;15.85;100.00;100494.00;6068044;19;20031;-71
2023/07/27 06:00:53;;;;;;;7.40;4.05;;;;;;;15.83;100.00;100491.47;6064747;19;20035;-70
2023/07/27 06:02:58;;;;;;;7.68;3.70;;;;;;;15.89;100.00;100485.75;6070315;19;20102;-72
2023/07/27 06:05:03;;;;;;;7.07;4.10;;;;;;;15.91;100.00;100488.31;6073020;19;20522;-70
2023/07/27 06:07:11;;;;;;;4.95;3.53;;;;;;;15.94;100.00;100480.97;6072121;19;20518;-70
2023/07/27 06:09:17;;;;;;;5.72;3.80;;;;;;;15.99;100.00;100478.88;6071606;19;20216;-70
2023/07/27 06:11:23;;;;;;;6.30;4.00;;;;;;;16.10;100.00;100485.22;6062943;19;20018;-70
2023/07/27 06:13:29;;;;;;;5.60;3.53;;;;;;;16.15;100.00;100470.69;6073893;19;20367;-70
2023/07/27 06:15:38;;;;;;;5.82;3.40;;;;;;;16.23;100.00;100470.16;6064849;19;20491;-70
2023/07/27 06:17:43;;;;;;;5.70;3.13;;;;;;;16.34;100.00;100461.44;6070619;19;20006;-71
2023/07/27 06:19:48;;;;;;;5.13;3.17;;;;;;;16.36;100.00;100467.50;6068907;19;20653;-70
2023/07/27 06:21:53;;;;;;;4.30;2.95;;;;;;;16.52;100.00;100467.25;6070414;19;20669;-71
2023/07/27 06:23:58;;;;;;;4.32;2.78;;;;;;;16.49;100.00;100460.38;6072978;19;20042;-71
2023/07/27 06:26:03;;;;;;;4.93;2.85;;;;;;;16.51;100.00;100462.91;6067643;19;20042;-71
2023/07/27 06:28:09;;;;;;;2.85;1.95;;;;;;;16.59;100.00;100457.91;6067541;19;20010;-71
2023/07/27 06:30:19;;;;;;;4.13;2.35;;;;;;;16.64;100.00;100464.59;6074679;19;20168;-71
2023/07/27 06:32:28;;;;;;;3.88;2.10;;;;;;;16.62;100.00;100469.13;6078344;19;20010;-70
2023/07/27 06:34:35;;;;;;;4.22;2.00;;;;;;;16.60;100.00;100465.75;6071027;19;20189;-70
2023/07/27 06:36:43;;;;;;;5.63;2.05;;;;;;;16.55;100.00;100467.88;6067412;19;20281;-70
2023/07/27 06:38:48;;;;;;;3.88;2.15;;;;;;;16.58;100.00;100466.81;6074005;19;20298;-70
2023/07/27 06:40:53;;;;;;;4.13;2.50;;;;;;;16.59;100.00;100464.06;6049262;19;20011;-72
2023/07/27 06:42:55;;;;;;;3.95;2.25;;;;;;;16.61;100.00;100461.28;6074202;19;20283;-72
2023/07/27 06:45:01;;;;;;;4.30;2.00;;;;;;;16.60;100.00;100457.78;6066837;19;20006;-70
2023/07/27 06:47:06;;;;;;;4.90;2.47;;;;;;;16.60;100.00;100460.44;6070777;19;20018;-71
2023/07/27 06:49:14;;;;;;;7.03;2.65;;;;;;;16.63;100.00;100460.22;6072110;19;20438;-70
2023/07/27 06:51:19;;;;;;;9.02;3.08;;;;;;;16.62;100.00;100453.22;6066703;19;20022;-70
2023/07/27 06:53:24;;;;;;;5.57;2.30;;;;;;;16.68;100.00;100463.38;6064701;19;20010;-69
2023/07/27 06:55:30;;;;;;;8.98;2.63;;;;;;;16.68;100.00;100462.53;6063590;19;20494;-70
2023/07/27 06:57:36;;;;;;;8.77;2.88;;;;;;;16.71;100.00;100456.16;6055468;19;20545;-70
2023/07/27 06:59:42;;;;;;;6.07;2.38;;;;;;;16.79;100.00;100461.78;6068930;19;20017;-70
2023/07/27 07:01:47;;;;;;;9.15;2.63;;;;;;;16.78;100.00;100452.16;6064641;19;20158;-70
2023/07/27 07:03:52;;;;;;;4.90;2.25;;;;;;;16.82;100.00;100451.78;6055435;19;20668;-70
2023/07/27 07:06:01;;;;;;;6.03;2.30;;;;;;;16.87;100.00;100459.44;6053965;19;20717;-70
2023/07/27 07:08:06;;;;;;;6.43;2.35;;;;;;;16.87;100.00;100456.78;6055838;19;20023;-70
2023/07/27 07:10:12;;;;;;;7.95;2.03;;;;;;;16.86;100.00;100463.91;6058311;19;20103;-71
2023/07/27 07:12:17;;;;;;;6.68;2.10;;;;;;;16.87;100.00;100470.03;6055599;19;20653;-69
2023/07/27 07:14:23;;;;;;;7.75;2.80;;;;;;;16.86;100.00;100469.22;6062159;19;20255;-71
2023/07/27 07:16:28;;;;;;;3.90;2.30;;;;;;;16.94;100.00;100463.34;6069834;19;20409;-71
2023/07/27 07:18:33;;;;;;;4.93;1.77;;;;;;;16.94;100.00;100460.69;6071225;19;20183;-71
2023/07/27 07:20:37;;;;;;;4.93;1.70;;;;;;;16.91;100.00;100460.91;6078462;19;20015;-71
2023/07/27 07:22:45;;;;;;;5.28;1.95;;;;;;;16.92;100.00;100461.75;6074956;19;20479;-70
2023/07/27 07:24:50;;;;;;;3.35;1.70;;;;;;;16.96;100.00;100457.94;6068895;19;20519;-70
2023/07/27 07:26:55;;;;;;;7.53;2.03;;;;;;;16.90;100.00;100464.50;6072688;19;20066;-70
2023/07/27 07:29:01;;;;;;;5.47;1.67;;;;;;;16.85;100.00;100461.34;6077260;19;20278;-70
2023/07/27 07:31:06;;;;;;;5.95;1.75;;;;;;;16.88;100.00;100459.34;6061616;19;20742;-70
2023/07/27 07:33:08;;;;;;;3.85;2.03;;;;;;;16.95;100.00;100454.41;6069488;19;20006;-71
2023/07/27 07:35:13;;;;;;;6.35;2.17;;;;;;;16.99;100.00;100455.03;6069661;19;20006;-71
2023/07/27 07:37:16;;;;;;;9.40;2.08;;;;;;;16.98;100.00;100462.16;6064035;19;20047;-72
2023/07/27 07:39:25;;;;;;;6.40;1.80;;;;;;;17.04;100.00;100456.41;6071223;19;20188;-71
2023/07/27 07:41:29;;;;;;;6.40;2.00;;;;;;;17.07;100.00;100453.50;6077722;19;20482;-71
2023/07/27 07:43:35;;;;;;;5.63;1.98;;;;;;;17.17;100.00;100451.03;6076427;19;20023;-70
2023/07/27 07:45:42;;;;;;;4.07;1.80;;;;;;;17.21;100.00;100452.47;6075714;19;20451;-71
2023/07/27 07:47:48;;;;;;;7.45;2.00;;;;;;;17.28;100.00;100447.56;6073839;19;20163;-71
2023/07/27 07:49:53;;;;;;;4.97;1.80;;;;;;;17.14;100.00;100447.75;6069628;19;20006;-70
2023/07/27 07:51:58;;;;;;;9.55;2.47;;;;;;;17.19;100.00;100437.63;6073949;19;20566;-70
2023/07/27 07:54:07;;;;;;;4.75;1.75;;;;;;;17.16;100.00;100443.16;6073961;19;20050;-72
2023/07/27 07:56:18;;;;;;;3.90;1.75;;;;;;;17.13;100.00;100449.56;6078875;19;20002;-71
2023/07/27 07:58:23;;;;;;;6.45;2.13;;;;;;;17.20;100.00;100452.63;6067486;19;20558;-73
2023/07/27 08:00:28;;;;;;;3.50;1.58;;;;;;;17.21;100.00;100447.16;6066893;19;20195;-72
2023/07/27 08:02:33;;;;;;;4.97;1.70;;;;;;;17.18;100.00;100449.22;6073469;19;20031;-72
2023/07/27 08:04:39;;;;;;;2.88;1.60;;;;;;;17.26;100.00;100444.19;6075595;19;20043;-70
2023/07/27 08:06:45;;;;;;;6.28;2.00;;;;;;;17.34;100.00;100439.97;6068467;19;20010;-70
2023/07/27 08:08:50;;;;;;;6.10;1.80;;;;;;;17.45;100.00;100433.00;6068612;19;20799;-70
2023/07/27 08:10:55;;;;;;;6.15;1.55;;;;;;;17.45;100.00;100436.50;6067141;19;20015;-70
2023/07/27 08:13:03;;;;;;;4.18;1.50;;;;;;;17.39;100.00;100430.84;6067689;19;20002;-71
2023/07/27 08:15:09;;;;;;;3.72;1.95;;;;;;;17.47;100.00;100437.25;6065955;19;20013;-71
2023/07/27 08:17:17;;;;;;;7.68;1.80;;;;;;;17.41;100.00;100429.75;6071074;19;20040;-71
2023/07/27 08:19:22;;;;;;;7.82;2.00;;;;;;;17.49;100.00;100435.31;6065797;19;20028;-71
2023/07/27 08:21:30;;;;;;;7.93;1.83;;;;;;;17.51;100.00;100433.41;6068482;19;20015;-72
2023/07/27 08:23:36;;;;;;;3.13;1.50;;;;;;;17.48;100.00;100431.00;6071406;19;20291;-72
2023/07/27 08:25:39;;;;;;;4.32;1.67;;;;;;;17.51;100.00;100440.53;6062320;19;20015;-72
2023/07/27 08:27:44;;;;;;;3.42;1.52;;;;;;;17.49;100.00;100427.34;6067804;19;20006;-73
2023/07/27 08:29:52;;;;;;;2.83;1.35;;;;;;;17.46;100.00;100427.59;6065926;19;20523;-72
2023/07/27 08:31:57;;;;;;;3.22;1.25;;;;;;;17.59;100.00;100423.97;6066736;19;20027;-71
2023/07/27 08:34:00;;;;;;;3.78;1.50;;;;;;;17.70;100.00;100434.66;6070006;19;20014;-72
2023/07/27 08:36:05;;;;;;;;;;;;;;;17.83;100.00;100438.09;6069149;19;20227;-69
2023/07/27 08:38:11;;;;;;;5.65;1.80;;;;;;;17.70;100.00;100421.38;6068032;19;20419;-71
2023/07/27 08:40:19;;;;;;;6.43;1.70;;;;;;;17.74;100.00;100426.31;6063666;19;20023;-71
2023/07/27 08:42:24;;;;;;;3.28;1.45;;;;;;;17.87;100.00;100423.59;6072118;19;20064;-72
2023/07/27 08:44:32;;;;;;;2.92;1.42;;;;;;;17.84;100.00;100423.00;6066346;19;20069;-71
2023/07/27 08:46:41;;;;;;;5.53;1.70;;;;;;;17.77;100.00;100426.09;6069833;19;20435;-71
2023/07/27 08:48:48;;;;;;;3.60;1.75;;;;;;;17.95;100.00;100423.00;6073780;19;20006;-70
2023/07/27 08:50:54;;;;;;;5.78;1.50;;;;;;;18.04;100.00;100426.75;6068194;19;20410;-70
2023/07/27 08:52:59;;;;;;;4.28;1.63;;;;;;;18.12;100.00;100425.19;6063703;19;21417;-71
2023/07/27 08:55:05;;;;;;;4.35;1.65;;;;;;;18.10;100.00;100437.75;6066735;19;20070;-72
2023/07/27 08:57:13;;;;;;;1.90;1.27;;;;;;;18.07;100.00;100434.50;6065984;19;20030;-71
2023/07/27 08:59:15;;;;;;;3.45;1.42;;;;;;;18.14;100.00;100435.69;6060450;19;20011;-72
2023/07/27 09:01:20;;;;;;;1.70;1.20;;;;;;;18.10;100.00;100435.09;6060154;19;20155;-70
2023/07/27 09:03:28;;;;;;;3.38;1.30;;;;;;;18.03;100.00;100438.34;6061935;19;20078;-73
2023/07/27 09:05:45;;;;;;;4.38;1.67;;;;;;;18.01;100.00;100432.28;6064135;19;20396;-72
2023/07/27 09:07:52;;;;;;;4.05;1.42;;;;;;;18.16;100.00;100436.41;6063973;19;20600;-72
2023/07/27 09:09:57;;;;;;;4.47;1.77;;;;;;;18.26;100.00;100437.38;6062742;19;20746;-72
2023/07/27 09:12:03;;;;;;;3.78;1.48;;;;;;;18.33;100.00;100435.94;6061799;19;20708;-72
2023/07/27 09:14:09;;;;;;;6.55;1.63;;;;;;;18.26;100.00;100428.56;6064696;19;20527;-73
2023/07/27 09:16:14;;;;;;;3.95;1.33;;;;;;;18.43;100.00;100434.25;6064265;19;20503;-71
2023/07/27 09:18:19;;;;;;;4.13;1.40;;;;;;;18.39;100.00;100431.94;6066013;19;20294;-71
2023/07/27 09:20:28;;;;;;;3.13;1.00;;;;;;;18.30;100.00;100430.88;6068398;19;20006;-72
2023/07/27 09:22:36;;;;;;;6.25;1.90;;;;;;;18.32;100.00;100428.91;6068458;19;20038;-71
2023/07/27 09:24:43;;;;;;;6.18;1.67;;;;;;;18.17;100.00;100425.66;6071110;19;20086;-71
2023/07/27 09:26:49;;;;;;;2.22;1.38;;;;;;;18.30;100.00;100428.22;6069442;19;20233;-70
2023/07/27 09:28:56;;;;;;;2.35;1.52;;;;;;;18.33;100.00;100427.13;6071766;19;20616;-70
2023/07/27 09:31:02;;;;;;;5.28;1.67;;;;;;;18.27;100.00;100430.25;6073109;19;20215;-70
2023/07/27 09:33:08;;;;;;;3.35;1.63;;;;;;;18.30;100.00;100433.53;6072512;19;20018;-70
2023/07/27 09:35:15;;;;;;;4.05;1.30;;;;;;;18.24;100.00;100422.50;6074276;19;20013;-70
2023/07/27 09:37:25;;;;;;;2.72;1.45;;;;;;;18.23;100.00;100432.31;6071343;19;20193;-70
2023/07/27 09:39:30;;;;;;;5.32;1.88;;;;;;;18.27;100.00;100425.75;6076748;19;20482;-70
2023/07/27 09:41:35;;;;;;;8.90;1.85;;;;;;;18.24;100.00;100427.84;6077030;19;20014;-72
2023/07/27 09:43:41;;;;;;;4.20;1.80;;;;;;;18.16;100.00;100428.44;6077262;19;20513;-71